sensor_id;sensor_type;location;lat;lon;timestamp;P1;durP1;ratioP1;P2;durP2;ratioP2
7247;SDS011;3665;51.034;13.642;2024-01-11T00:02:37;15.97;;;10.70;;
7247;SDS011;3665;51.034;13.642;2024-01-11T00:07:38;14.77;;;10.43;;
7247;SDS011;3665;51.034;13.642;2024-01-11T00:12:34;16.50;;;12.23;;
7247;SDS011;3665;51.034;13.642;2024-01-11T00:17:50;16.17;;;12.83;;
7247;SDS011;3665;51.034;13.642;2024-01-11T00:23:06;17.10;;;11.27;;
7247;SDS011;3665;51.034;13.642;2024-01-11T00:27:59;14.73;;;10.93;;
7247;SDS011;3665;51.034;13.642;2024-01-11T00:32:58;16.27;;;11.70;;
7247;SDS011;3665;51.034;13.642;2024-01-11T00:37:47;14.80;;;10.93;;
7247;SDS011;3665;51.034;13.642;2024-01-11T00:42:34;11.73;;;9.47;;
7247;SDS011;3665;51.034;13.642;2024-01-11T00:53:06;17.13;;;11.37;;
7247;SDS011;3665;51.034;13.642;2024-01-11T00:58:54;16.23;;;11.07;;
7247;SDS011;3665;51.034;13.642;2024-01-11T01:04:15;14.47;;;10.03;;
7247;SDS011;3665;51.034;13.642;2024-01-11T01:09:07;14.53;;;9.00;;
7247;SDS011;3665;51.034;13.642;2024-01-11T01:14:51;11.93;;;9.27;;
7247;SDS011;3665;51.034;13.642;2024-01-11T01:20:18;13.83;;;8.93;;
7247;SDS011;3665;51.034;13.642;2024-01-11T01:25:48;13.63;;;9.13;;
7247;SDS011;3665;51.034;13.642;2024-01-11T01:30:59;12.17;;;8.57;;
7247;SDS011;3665;51.034;13.642;2024-01-11T01:36:28;13.40;;;9.40;;
7247;SDS011;3665;51.034;13.642;2024-01-11T01:41:30;12.33;;;8.83;;
7247;SDS011;3665;51.034;13.642;2024-01-11T01:52:23;13.80;;;8.60;;
7247;SDS011;3665;51.034;13.642;2024-01-11T01:57:18;15.43;;;9.87;;
7247;SDS011;3665;51.034;13.642;2024-01-11T02:02:58;15.10;;;10.10;;
7247;SDS011;3665;51.034;13.642;2024-01-11T02:08:44;14.80;;;9.77;;
7247;SDS011;3665;51.034;13.642;2024-01-11T02:14:06;14.27;;;9.67;;
7247;SDS011;3665;51.034;13.642;2024-01-11T02:19:25;14.07;;;10.03;;
7247;SDS011;3665;51.034;13.642;2024-01-11T02:30:07;12.97;;;9.63;;
7247;SDS011;3665;51.034;13.642;2024-01-11T02:35:24;14.33;;;9.27;;
7247;SDS011;3665;51.034;13.642;2024-01-11T02:41:02;15.37;;;10.30;;
7247;SDS011;3665;51.034;13.642;2024-01-11T02:46:07;15.23;;;10.30;;
7247;SDS011;3665;51.034;13.642;2024-01-11T02:51:06;15.80;;;10.93;;
7247;SDS011;3665;51.034;13.642;2024-01-11T02:56:19;14.13;;;9.53;;
7247;SDS011;3665;51.034;13.642;2024-01-11T03:07:15;15.00;;;10.20;;
7247;SDS011;3665;51.034;13.642;2024-01-11T03:13:05;14.17;;;10.23;;
7247;SDS011;3665;51.034;13.642;2024-01-11T03:24:00;13.37;;;9.13;;
7247;SDS011;3665;51.034;13.642;2024-01-11T03:29:08;13.93;;;9.63;;
7247;SDS011;3665;51.034;13.642;2024-01-11T03:34:11;14.37;;;10.00;;
7247;SDS011;3665;51.034;13.642;2024-01-11T03:39:26;12.90;;;8.20;;
7247;SDS011;3665;51.034;13.642;2024-01-11T03:44:46;13.27;;;9.03;;
7247;SDS011;3665;51.034;13.642;2024-01-11T04:01:00;9.90;;;8.00;;
7247;SDS011;3665;51.034;13.642;2024-01-11T04:23:07;13.00;;;9.43;;
7247;SDS011;3665;51.034;13.642;2024-01-11T04:28:31;13.70;;;8.80;;
7247;SDS011;3665;51.034;13.642;2024-01-11T04:33:22;13.17;;;10.30;;
7247;SDS011;3665;51.034;13.642;2024-01-11T04:38:41;20.67;;;13.20;;
7247;SDS011;3665;51.034;13.642;2024-01-11T04:43:43;33.50;;;18.63;;
7247;SDS011;3665;51.034;13.642;2024-01-11T04:54:56;29.07;;;18.67;;
7247;SDS011;3665;51.034;13.642;2024-01-11T05:00:12;23.37;;;16.30;;
7247;SDS011;3665;51.034;13.642;2024-01-11T05:05:16;23.57;;;14.33;;
7247;SDS011;3665;51.034;13.642;2024-01-11T05:10:50;23.07;;;13.43;;
7247;SDS011;3665;51.034;13.642;2024-01-11T05:15:59;17.70;;;11.70;;
7247;SDS011;3665;51.034;13.642;2024-01-11T05:21:05;18.40;;;12.07;;
7247;SDS011;3665;51.034;13.642;2024-01-11T05:26:07;17.83;;;10.63;;
7247;SDS011;3665;51.034;13.642;2024-01-11T05:31:41;14.03;;;9.73;;
7247;SDS011;3665;51.034;13.642;2024-01-11T05:36:43;11.77;;;8.17;;
7247;SDS011;3665;51.034;13.642;2024-01-11T05:41:31;12.90;;;8.90;;
7247;SDS011;3665;51.034;13.642;2024-01-11T05:52:14;12.43;;;8.83;;
7247;SDS011;3665;51.034;13.642;2024-01-11T05:57:19;13.87;;;8.87;;
7247;SDS011;3665;51.034;13.642;2024-01-11T06:14:19;16.00;;;10.03;;
7247;SDS011;3665;51.034;13.642;2024-01-11T06:24:44;12.07;;;9.53;;
7247;SDS011;3665;51.034;13.642;2024-01-11T06:29:37;14.30;;;10.40;;
7247;SDS011;3665;51.034;13.642;2024-01-11T06:34:49;15.83;;;8.20;;
7247;SDS011;3665;51.034;13.642;2024-01-11T06:40:16;14.53;;;9.60;;
7247;SDS011;3665;51.034;13.642;2024-01-11T06:51:00;12.97;;;9.80;;
7247;SDS011;3665;51.034;13.642;2024-01-11T06:56:36;14.07;;;10.80;;
7247;SDS011;3665;51.034;13.642;2024-01-11T07:01:51;13.00;;;9.60;;
7247;SDS011;3665;51.034;13.642;2024-01-11T07:07:22;12.77;;;8.47;;
7247;SDS011;3665;51.034;13.642;2024-01-11T07:12:28;13.63;;;8.93;;
7247;SDS011;3665;51.034;13.642;2024-01-11T07:17:46;12.70;;;9.03;;
7247;SDS011;3665;51.034;13.642;2024-01-11T07:22:56;12.27;;;8.13;;
7247;SDS011;3665;51.034;13.642;2024-01-11T07:28:32;18.03;;;11.27;;
7247;SDS011;3665;51.034;13.642;2024-01-11T07:34:18;19.73;;;11.20;;
7247;SDS011;3665;51.034;13.642;2024-01-11T07:44:36;16.30;;;10.90;;
7247;SDS011;3665;51.034;13.642;2024-01-11T07:49:54;17.57;;;10.63;;
7247;SDS011;3665;51.034;13.642;2024-01-11T07:54:52;18.40;;;10.60;;
7247;SDS011;3665;51.034;13.642;2024-01-11T08:05:16;16.07;;;10.43;;
7247;SDS011;3665;51.034;13.642;2024-01-11T08:10:21;15.40;;;9.87;;
7247;SDS011;3665;51.034;13.642;2024-01-11T08:26:54;14.60;;;10.73;;
7247;SDS011;3665;51.034;13.642;2024-01-11T08:32:16;17.10;;;10.20;;
7247;SDS011;3665;51.034;13.642;2024-01-11T08:37:16;16.30;;;11.97;;
7247;SDS011;3665;51.034;13.642;2024-01-11T08:42:18;14.77;;;9.97;;
7247;SDS011;3665;51.034;13.642;2024-01-11T08:47:11;14.40;;;10.10;;
7247;SDS011;3665;51.034;13.642;2024-01-11T08:52:49;18.60;;;11.67;;
7247;SDS011;3665;51.034;13.642;2024-01-11T08:57:48;16.07;;;11.33;;
7247;SDS011;3665;51.034;13.642;2024-01-11T09:08:20;21.33;;;12.00;;
7247;SDS011;3665;51.034;13.642;2024-01-11T09:13:15;20.40;;;12.80;;
7247;SDS011;3665;51.034;13.642;2024-01-11T09:18:02;23.67;;;14.30;;
7247;SDS011;3665;51.034;13.642;2024-01-11T09:22:54;23.50;;;14.57;;
7247;SDS011;3665;51.034;13.642;2024-01-11T09:27:57;22.07;;;13.93;;
7247;SDS011;3665;51.034;13.642;2024-01-11T09:33:03;21.23;;;13.73;;
7247;SDS011;3665;51.034;13.642;2024-01-11T09:38:07;25.63;;;15.93;;
7247;SDS011;3665;51.034;13.642;2024-01-11T09:43:07;23.77;;;15.77;;
7247;SDS011;3665;51.034;13.642;2024-01-11T09:47:54;29.07;;;16.77;;
7247;SDS011;3665;51.034;13.642;2024-01-11T09:52:46;26.97;;;17.90;;
7247;SDS011;3665;51.034;13.642;2024-01-11T09:57:52;29.53;;;18.10;;
7247;SDS011;3665;51.034;13.642;2024-01-11T10:02:52;30.73;;;19.13;;
7247;SDS011;3665;51.034;13.642;2024-01-11T10:07:38;34.03;;;20.03;;
7247;SDS011;3665;51.034;13.642;2024-01-11T10:12:43;30.00;;;18.00;;
7247;SDS011;3665;51.034;13.642;2024-01-11T10:17:34;31.83;;;20.17;;
7247;SDS011;3665;51.034;13.642;2024-01-11T10:22:49;35.63;;;19.90;;
7247;SDS011;3665;51.034;13.642;2024-01-11T10:27:47;29.47;;;19.13;;
7247;SDS011;3665;51.034;13.642;2024-01-11T10:32:43;30.03;;;19.10;;
7247;SDS011;3665;51.034;13.642;2024-01-11T10:37:30;31.27;;;20.80;;
7247;SDS011;3665;51.034;13.642;2024-01-11T10:42:21;32.67;;;21.20;;
7247;SDS011;3665;51.034;13.642;2024-01-11T10:47:42;33.50;;;21.10;;
7247;SDS011;3665;51.034;13.642;2024-01-11T10:58:39;29.30;;;19.63;;
7247;SDS011;3665;51.034;13.642;2024-01-11T11:04:02;33.00;;;19.37;;
7247;SDS011;3665;51.034;13.642;2024-01-11T11:08:58;29.50;;;19.50;;
7247;SDS011;3665;51.034;13.642;2024-01-11T11:14:02;30.40;;;19.80;;
7247;SDS011;3665;51.034;13.642;2024-01-11T11:19:26;27.60;;;17.67;;
7247;SDS011;3665;51.034;13.642;2024-01-11T11:24:44;28.70;;;18.13;;
7247;SDS011;3665;51.034;13.642;2024-01-11T11:30:04;31.47;;;18.63;;
7247;SDS011;3665;51.034;13.642;2024-01-11T11:35:29;27.40;;;17.80;;
7247;SDS011;3665;51.034;13.642;2024-01-11T11:45:29;29.63;;;18.97;;
7247;SDS011;3665;51.034;13.642;2024-01-11T11:50:19;28.93;;;17.07;;
7247;SDS011;3665;51.034;13.642;2024-01-11T11:55:07;28.70;;;17.13;;
7247;SDS011;3665;51.034;13.642;2024-01-11T11:59:53;28.13;;;16.23;;
7247;SDS011;3665;51.034;13.642;2024-01-11T12:05:20;29.33;;;17.20;;
7247;SDS011;3665;51.034;13.642;2024-01-11T12:10:23;27.63;;;17.33;;
7247;SDS011;3665;51.034;13.642;2024-01-11T12:15:08;26.87;;;16.10;;
7247;SDS011;3665;51.034;13.642;2024-01-11T12:19:55;31.00;;;16.77;;
7247;SDS011;3665;51.034;13.642;2024-01-11T12:24:42;25.33;;;16.87;;
7247;SDS011;3665;51.034;13.642;2024-01-11T12:29:32;25.70;;;16.50;;
7247;SDS011;3665;51.034;13.642;2024-01-11T12:34:33;30.17;;;17.87;;
7247;SDS011;3665;51.034;13.642;2024-01-11T12:39:27;29.50;;;18.03;;
7247;SDS011;3665;51.034;13.642;2024-01-11T12:44:20;27.63;;;18.77;;
7247;SDS011;3665;51.034;13.642;2024-01-11T12:49:15;38.23;;;19.07;;
7247;SDS011;3665;51.034;13.642;2024-01-11T12:54:04;30.67;;;18.73;;
7247;SDS011;3665;51.034;13.642;2024-01-11T12:59:07;30.30;;;19.07;;
7247;SDS011;3665;51.034;13.642;2024-01-11T13:03:57;31.20;;;17.80;;
7247;SDS011;3665;51.034;13.642;2024-01-11T13:08:43;32.07;;;19.97;;
7247;SDS011;3665;51.034;13.642;2024-01-11T13:13:33;25.07;;;16.77;;
7247;SDS011;3665;51.034;13.642;2024-01-11T13:18:20;28.63;;;17.50;;
7247;SDS011;3665;51.034;13.642;2024-01-11T13:23:13;27.87;;;16.90;;
7247;SDS011;3665;51.034;13.642;2024-01-11T13:33:33;36.30;;;19.03;;
7247;SDS011;3665;51.034;13.642;2024-01-11T13:38:26;31.03;;;19.47;;
7247;SDS011;3665;51.034;13.642;2024-01-11T13:43:57;33.70;;;23.27;;
7247;SDS011;3665;51.034;13.642;2024-01-11T13:48:42;28.30;;;18.30;;
7247;SDS011;3665;51.034;13.642;2024-01-11T13:53:35;27.60;;;18.07;;
7247;SDS011;3665;51.034;13.642;2024-01-11T13:58:19;29.83;;;17.83;;
7247;SDS011;3665;51.034;13.642;2024-01-11T14:08:27;28.70;;;18.10;;
7247;SDS011;3665;51.034;13.642;2024-01-11T14:13:16;26.13;;;17.20;;
7247;SDS011;3665;51.034;13.642;2024-01-11T14:18:05;25.20;;;15.97;;
7247;SDS011;3665;51.034;13.642;2024-01-11T14:23:11;25.83;;;15.87;;
7247;SDS011;3665;51.034;13.642;2024-01-11T14:28:14;26.50;;;15.07;;
7247;SDS011;3665;51.034;13.642;2024-01-11T14:33:14;29.20;;;16.80;;
7247;SDS011;3665;51.034;13.642;2024-01-11T14:38:06;27.13;;;16.87;;
7247;SDS011;3665;51.034;13.642;2024-01-11T14:43:27;29.60;;;18.53;;
7247;SDS011;3665;51.034;13.642;2024-01-11T14:48:19;29.10;;;17.87;;
7247;SDS011;3665;51.034;13.642;2024-01-11T14:53:35;34.07;;;20.40;;
7247;SDS011;3665;51.034;13.642;2024-01-11T14:58:50;35.77;;;19.60;;
7247;SDS011;3665;51.034;13.642;2024-01-11T15:04:14;33.40;;;20.20;;
7247;SDS011;3665;51.034;13.642;2024-01-11T15:09:52;37.13;;;21.27;;
7247;SDS011;3665;51.034;13.642;2024-01-11T15:15:09;34.77;;;21.50;;
7247;SDS011;3665;51.034;13.642;2024-01-11T15:20:00;40.60;;;22.50;;
7247;SDS011;3665;51.034;13.642;2024-01-11T15:30:04;38.27;;;22.10;;
7247;SDS011;3665;51.034;13.642;2024-01-11T15:35:32;35.83;;;21.33;;
7247;SDS011;3665;51.034;13.642;2024-01-11T15:41:17;38.80;;;22.50;;
7247;SDS011;3665;51.034;13.642;2024-01-11T15:47:10;42.43;;;21.67;;
7247;SDS011;3665;51.034;13.642;2024-01-11T16:03:37;41.67;;;23.67;;
7247;SDS011;3665;51.034;13.642;2024-01-11T16:08:44;39.40;;;23.03;;
7247;SDS011;3665;51.034;13.642;2024-01-11T16:13:48;36.17;;;20.33;;
7247;SDS011;3665;51.034;13.642;2024-01-11T16:19:23;39.90;;;23.97;;
7247;SDS011;3665;51.034;13.642;2024-01-11T16:24:43;38.83;;;21.23;;
7247;SDS011;3665;51.034;13.642;2024-01-11T16:30:07;43.57;;;25.47;;
7247;SDS011;3665;51.034;13.642;2024-01-11T16:35:31;45.93;;;24.37;;
7247;SDS011;3665;51.034;13.642;2024-01-11T16:40:44;37.70;;;23.87;;
7247;SDS011;3665;51.034;13.642;2024-01-11T16:51:26;48.10;;;26.93;;
7247;SDS011;3665;51.034;13.642;2024-01-11T16:57:08;48.10;;;26.97;;
7247;SDS011;3665;51.034;13.642;2024-01-11T17:02:19;43.63;;;25.47;;
7247;SDS011;3665;51.034;13.642;2024-01-11T17:12:35;43.87;;;25.07;;
7247;SDS011;3665;51.034;13.642;2024-01-11T17:17:34;44.40;;;25.23;;
7247;SDS011;3665;51.034;13.642;2024-01-11T17:29:22;39.80;;;22.27;;
7247;SDS011;3665;51.034;13.642;2024-01-11T17:35:24;36.50;;;20.47;;
7247;SDS011;3665;51.034;13.642;2024-01-11T17:41:03;36.50;;;20.43;;
7247;SDS011;3665;51.034;13.642;2024-01-11T17:52:18;32.03;;;18.30;;
7247;SDS011;3665;51.034;13.642;2024-01-11T17:58:04;29.73;;;19.33;;
7247;SDS011;3665;51.034;13.642;2024-01-11T18:16:15;31.57;;;19.77;;
7247;SDS011;3665;51.034;13.642;2024-01-11T18:27:56;31.77;;;17.43;;
7247;SDS011;3665;51.034;13.642;2024-01-11T18:33:32;26.90;;;15.33;;
7247;SDS011;3665;51.034;13.642;2024-01-11T18:38:20;27.60;;;17.30;;
7247;SDS011;3665;51.034;13.642;2024-01-11T18:43:25;24.53;;;15.43;;
7247;SDS011;3665;51.034;13.642;2024-01-11T18:49:22;21.10;;;14.00;;
7247;SDS011;3665;51.034;13.642;2024-01-11T18:54:07;21.90;;;13.67;;
7247;SDS011;3665;51.034;13.642;2024-01-11T18:59:25;22.30;;;13.60;;
7247;SDS011;3665;51.034;13.642;2024-01-11T19:10:18;22.77;;;14.43;;
7247;SDS011;3665;51.034;13.642;2024-01-11T19:15:08;24.50;;;15.70;;
7247;SDS011;3665;51.034;13.642;2024-01-11T19:20:32;20.57;;;14.07;;
7247;SDS011;3665;51.034;13.642;2024-01-11T19:26:02;23.67;;;13.17;;
7247;SDS011;3665;51.034;13.642;2024-01-11T19:36:42;20.00;;;12.93;;
7247;SDS011;3665;51.034;13.642;2024-01-11T19:41:48;20.27;;;12.50;;
7247;SDS011;3665;51.034;13.642;2024-01-11T19:47:16;25.73;;;14.60;;
7247;SDS011;3665;51.034;13.642;2024-01-11T19:52:34;20.43;;;13.33;;
7247;SDS011;3665;51.034;13.642;2024-01-11T19:57:30;20.77;;;12.63;;
7247;SDS011;3665;51.034;13.642;2024-01-11T20:02:37;21.67;;;12.23;;
7247;SDS011;3665;51.034;13.642;2024-01-11T20:19:12;20.47;;;12.90;;
7247;SDS011;3665;51.034;13.642;2024-01-11T20:24:46;19.60;;;12.63;;
7247;SDS011;3665;51.034;13.642;2024-01-11T20:30:10;18.87;;;12.10;;
7247;SDS011;3665;51.034;13.642;2024-01-11T20:46:41;24.70;;;13.63;;
7247;SDS011;3665;51.034;13.642;2024-01-11T20:51:40;22.87;;;13.93;;
7247;SDS011;3665;51.034;13.642;2024-01-11T20:58:10;22.43;;;14.20;;
7247;SDS011;3665;51.034;13.642;2024-01-11T21:09:04;21.20;;;13.20;;
7247;SDS011;3665;51.034;13.642;2024-01-11T21:14:43;23.60;;;13.73;;
7247;SDS011;3665;51.034;13.642;2024-01-11T21:20:16;22.53;;;14.00;;
7247;SDS011;3665;51.034;13.642;2024-01-11T21:25:21;21.07;;;13.60;;
7247;SDS011;3665;51.034;13.642;2024-01-11T21:42:23;25.30;;;15.73;;
7247;SDS011;3665;51.034;13.642;2024-01-11T21:48:18;29.47;;;15.30;;
7247;SDS011;3665;51.034;13.642;2024-01-11T21:53:40;21.10;;;14.13;;
7247;SDS011;3665;51.034;13.642;2024-01-11T22:04:58;21.97;;;15.57;;
7247;SDS011;3665;51.034;13.642;2024-01-11T22:10:02;25.73;;;15.43;;
7247;SDS011;3665;51.034;13.642;2024-01-11T22:15:09;24.77;;;15.30;;
7247;SDS011;3665;51.034;13.642;2024-01-11T22:20:29;27.87;;;15.50;;
7247;SDS011;3665;51.034;13.642;2024-01-11T22:25:47;21.57;;;14.13;;
7247;SDS011;3665;51.034;13.642;2024-01-11T22:31:43;21.60;;;13.37;;
7247;SDS011;3665;51.034;13.642;2024-01-11T22:37:00;20.80;;;13.67;;
7247;SDS011;3665;51.034;13.642;2024-01-11T22:41:49;20.60;;;13.07;;
7247;SDS011;3665;51.034;13.642;2024-01-11T22:46:57;20.83;;;13.20;;
7247;SDS011;3665;51.034;13.642;2024-01-11T22:52:12;22.60;;;13.47;;
7247;SDS011;3665;51.034;13.642;2024-01-11T23:03:53;20.40;;;13.93;;
7247;SDS011;3665;51.034;13.642;2024-01-11T23:09:22;21.07;;;13.50;;
7247;SDS011;3665;51.034;13.642;2024-01-11T23:14:44;20.97;;;13.07;;
7247;SDS011;3665;51.034;13.642;2024-01-11T23:25:21;18.77;;;11.97;;
7247;SDS011;3665;51.034;13.642;2024-01-11T23:36:20;20.60;;;13.20;;
7247;SDS011;3665;51.034;13.642;2024-01-11T23:47:05;20.30;;;13.40;;
7247;SDS011;3665;51.034;13.642;2024-01-11T23:52:05;19.77;;;13.20;;
7247;SDS011;3665;51.034;13.642;2024-01-11T23:57:42;19.63;;;12.13;;
